Bochem Ghent — VRIA8 — position and weather

sailwx.info

Track history (hours):
 
Tides and Currents Weather Stations Pressure Air Temp Water Temp Dewpoint Dewpoint Depression Visibility Wind Speed Wind Dir Waves Ship Positions

Bochem Ghent

Last reported at 2018-Feb-15 23:48 UTC. Time now 2018-Feb-20 23:51 UTC.
Position N 27°16' W 014°14'.

Length 170 m; draft 6.8 m.

Type: Ship (hazmat cat B). MMSI: 477351300.

Date/timePositionNaut miles runAvg speedWind from/ knotsBaromVisibWave heightAir tempDewpointWater temp
2018-Feb-15 23:48N 27°16' W 014°14'1114.7
2018-Feb-15 23:04N 27°25' W 014°07'414.8
2018-Feb-15 22:47N 27°29' W 014°05'414.8
2018-Feb-15 22:30N 27°32' W 014°02'815.1
2018-Feb-15 21:58N 27°39' W 013°57'715.5
2018-Feb-15 21:30N 27°45' W 013°53'815.2
2018-Feb-15 21:00N 27°51' W 013°48'815.4
2018-Feb-15 20:30N 27°58' W 013°43'815.1
2018-Feb-15 20:00N 28°04' W 013°38'715.2
2018-Feb-15 19:30N 28°10' W 013°33'815.3
2018-Feb-15 19:00N 28°17' W 013°28'815.2
2018-Feb-15 18:30N 28°23' W 013°24'815.1
2018-Feb-15 18:00N 28°29' W 013°19'815.2
2018-Feb-15 17:30N 28°35' W 013°14'2615.2
2018-Feb-15 15:47N 28°57' W 012°58'415.6
2018-Feb-15 15:30N 29°01' W 012°55'715.2
2018-Feb-15 15:00N 29°07' W 012°50'714.8
2018-Feb-15 14:30N 29°13' W 012°46'815.1
2018-Feb-15 14:00N 29°20' W 012°41'815.3
2018-Feb-15 13:30N 29°26' W 012°36'3014.8
2018-Feb-15 11:28N 29°52' W 012°19'814.7
2018-Feb-15 10:57N 29°59' W 012°15'1714.9
2018-Feb-15 09:48N 30°16' W 012°09'414.8
2018-Feb-15 09:30N 30°20' W 012°08'714.9
2018-Feb-15 09:00N 30°27' W 012°06'714.8
2018-Feb-15 08:30N 30°34' W 012°05'714.7
2018-Feb-15 08:00N 30°42' W 012°03'714.8
2018-Feb-15 07:30N 30°49' W 012°01'714.8
2018-Feb-15 07:00N 30°56' W 011°59'714.6
2018-Feb-15 06:30N 31°03' W 011°57'814.8
2018-Feb-15 05:57N 31°11' W 011°55'914.7
2018-Feb-15 05:19N 31°20' W 011°53'35314.5
2018-Feb-14 04:54N 37°05' W 010°21'7014.4
2018-Feb-14 00:00N 38°14' W 010°05'715.1
2018-Feb-13 23:31N 38°21' W 010°04'714.7
2018-Feb-13 23:00N 38°29' W 010°03'714.6
2018-Feb-13 22:30N 38°36' W 010°05'714.5
2018-Feb-13 21:59N 38°43' W 010°06'714.5
2018-Feb-13 21:30N 38°50' W 010°06'714.3
2018-Feb-13 21:00N 38°58' W 010°06'714.3
2018-Feb-13 20:30N 39°05' W 010°07'714.1
2018-Feb-13 20:00N 39°12' W 010°07'814.2
2018-Feb-13 19:27N 39°20' W 010°07'  
2018-Feb-11 09:54N 49°48' W 003°28'1213.0
2018-Feb-11 08:57N 49°54' W 003°10'813.0
2018-Feb-11 08:18N 49°57' W 002°59'412.5
2018-Feb-11 08:00N 49°59' W 002°54'612.3
2018-Feb-11 07:30N 50°02' W 002°45'611.8
2018-Feb-11 07:00N 50°03' W 002°36'611.4
2018-Feb-11 06:29N 50°05' W 002°27'1210.5
2018-Feb-11 05:22N 50°07' W 002°10'4 9.8
2018-Feb-11 04:58N 50°08' W 002°04'4 9.5
2018-Feb-11 04:30N 50°09' W 001°57'5 9.4
2018-Feb-11 04:00N 50°10' W 001°50'5 9.4
2018-Feb-11 03:30N 50°11' W 001°43'5 9.8
2018-Feb-11 03:00N 50°13' W 001°35'510.0
2018-Feb-11 02:30N 50°14' W 001°28'510.6
2018-Feb-11 02:00N 50°15' W 001°20'611.2
2018-Feb-11 01:29N 50°17' W 001°11'3312.3
2018-Feb-10 22:49N 50°26' W 000°21'412.2
2018-Feb-10 22:30N 50°27' W 000°16'612.1
2018-Feb-10 22:00N 50°28' W 000°07'612.0
2018-Feb-10 21:30N 50°30' E 000°02'611.4
2018-Feb-10 20:58N 50°32' E 000°12'511.0
2018-Feb-10 20:30N 50°33' E 000°20'610.8
2018-Feb-10 19:58N 50°35' E 000°28'510.7
2018-Feb-10 19:30N 50°36' E 000°36'510.8
2018-Feb-10 19:00N 50°39' E 000°43'510.8
2018-Feb-10 18:30N 50°42' E 000°50'510.8
2018-Feb-10 18:00N 50°45' E 000°57'510.9
2018-Feb-10 17:30N 50°48' E 001°04'611.2
2018-Feb-10 16:59N 50°52' E 001°11'611.6
2018-Feb-10 16:29N 50°55' E 001°18'612.5
2018-Feb-10 16:00N 51°00' E 001°25'613.2
2018-Feb-10 15:30N 51°05' E 001°32'713.3
2018-Feb-10 15:00N 51°09' E 001°39'713.5
2018-Feb-10 14:30N 51°14' E 001°47'713.5
2018-Feb-10 14:00N 51°20' E 001°52'713.1
2018-Feb-10 13:30N 51°26' E 001°58'613.0
2018-Feb-10 13:00N 51°30' E 002°05'613.0
2018-Feb-10 12:30N 51°35' E 002°12'713.0
2018-Feb-10 12:00N 51°40' E 002°19'612.7
2018-Feb-10 11:30N 51°45' E 002°26'912.7
2018-Feb-10 10:47N 51°51' E 002°36'912.5
2018-Feb-10 10:06N 51°58' E 002°44'1812.0
2018-Feb-10 08:35N 52°03' E 003°13'213.1
2018-Feb-10 08:24N 52°03' E 003°17'713.4
2018-Feb-10 07:55N 52°04' E 003°27'613.8
2018-Feb-10 07:30N 52°04' E 003°36'713.5
2018-Feb-10 07:00N 52°04' E 003°47'5 9.8
2018-Feb-10 06:30N 52°02' E 003°55'4 8.4
2018-Feb-10 06:00N 52°00' E 004°01'713.7
2018-Feb-10 05:30N 51°57' E 004°10'611.8
2018-Feb-10 05:00N 51°54' E 004°18'1 1.7
2018-Feb-10 04:29N 51°53' E 004°17'0 0.0
2018-Feb-10 03:59N 51°53' E 004°17'0 0.0
2018-Feb-10 03:29N 51°53' E 004°17'0 0.0
2018-Feb-10 02:59N 51°53' E 004°17'0 0.0
2018-Feb-10 02:29N 51°53' E 004°17'0 0.0
2018-Feb-10 01:59N 51°53' E 004°17'0 0.0
2018-Feb-10 01:29N 51°53' E 004°17'0 0.0
2018-Feb-10 00:59N 51°53' E 004°17'0 0.0
2018-Feb-10 00:29N 51°53' E 004°17'0 0.0
2018-Feb-09 23:59N 51°53' E 004°17'0 0.0
2018-Feb-09 23:29N 51°53' E 004°17'0 0.0
2018-Feb-09 22:59N 51°53' E 004°17'0 0.0
2018-Feb-09 22:44N 51°53' E 004°17'1 0.0
2018-Feb-08 01:25N 51°53' E 004°16'0 0.0
2018-Feb-08 00:58N 51°53' E 004°16'0 0.0
2018-Feb-08 00:28N 51°53' E 004°16'0 0.0
2018-Feb-07 23:58N 51°53' E 004°16'0 0.0
2018-Feb-07 23:25N 51°53' E 004°16'0 0.0
2018-Feb-07 22:49N 51°53' E 004°16'0 0.0
2018-Feb-07 22:28N 51°53' E 004°16'0 0.0
2018-Feb-07 21:55N 51°53' E 004°16'0 0.0
2018-Feb-07 21:10N 51°53' E 004°16'3 0.3
2018-Feb-07 09:30N 51°56' E 004°14'5 9.7
2018-Feb-07 09:00N 51°58' E 004°07'510.4
2018-Feb-07 08:30N 51°60' E 003°59'713.2
2018-Feb-07 08:00N 51°59' E 003°48'4 8.3
2018-Feb-07 07:30N 51°59' E 003°41'4 8.7
2018-Feb-07 07:00N 51°57' E 003°35'9 9.8
2018-Feb-07 06:03N 51°53' E 003°22'011.1
2018-Feb-07 06:00N 51°52' E 003°22'712.1
2018-Feb-07 05:27N 51°46' E 003°17'610.8
2018-Feb-07 04:56N 51°41' E 003°19'512.0
2018-Feb-07 04:30N 51°36' E 003°23'510.9
2018-Feb-07 04:00N 51°31' E 003°26'510.7
2018-Feb-07 03:30N 51°27' E 003°31'4 8.4
2018-Feb-07 03:00N 51°26' E 003°38'5 9.7
2018-Feb-07 02:29N 51°23' E 003°43'611.7
2018-Feb-07 02:00N 51°21' E 003°52'611.6
2018-Feb-07 01:30N 51°25' E 003°58'5 9.6
2018-Feb-07 01:00N 51°22' E 004°04'9 9.0
2018-Feb-07 00:00N 51°18' E 004°17'2 4.8
2018-Feb-06 23:30N 51°16' E 004°17'0 0.1
2018-Feb-06 23:00N 51°16' E 004°17'0 0.5
2018-Feb-06 22:30N 51°16' E 004°16'2 3.9
2018-Feb-06 22:00N 51°17' E 004°14'0 0.0
2018-Feb-06 21:30N 51°17' E 004°14'0 0.0
2018-Feb-06 20:31N 51°17' E 004°14'0 0.0
2018-Feb-06 20:19N 51°17' E 004°14'0 0.0
2018-Feb-06 18:34N 51°17' E 004°14'0 0.0
2018-Feb-06 18:16N 51°17' E 004°14'0 0.0
2018-Feb-06 17:58N 51°17' E 004°14'0 0.0
2018-Feb-06 17:25N 51°17' E 004°14'0 0.0
2018-Feb-06 14:07N 51°17' E 004°14'0 0.0
2018-Feb-06 13:10N 51°17' E 004°14'0 0.0
2018-Feb-06 05:22N 51°17' E 004°14'0 0.0
2018-Feb-06 03:37N 51°17' E 004°14'0 0.0
2018-Feb-06 03:16N 51°17' E 004°14'0 0.0
2018-Feb-06 01:40N 51°17' E 004°14'  
Track history (hours):
 
Tides and Currents Weather Stations Pressure Air Temp Water Temp Dewpoint Dewpoint Depression Visibility Wind Speed Wind Dir Waves Ship Positions

Bochem Ghent

Last reported at 2018-Feb-15 23:48 UTC. Time now 2018-Feb-20 23:51 UTC.
Position N 27°16' W 014°14'.

Length 170 m; draft 6.8 m.

Type: Ship (hazmat cat B). MMSI: 477351300.

Date/timePositionNaut miles runAvg speedWind from/ knotsBaromVisibWave heightAir tempDewpointWater temp
2018-Feb-15 23:48N 27°16' W 014°14'1114.7
2018-Feb-15 23:04N 27°25' W 014°07'414.8
2018-Feb-15 22:47N 27°29' W 014°05'414.8
2018-Feb-15 22:30N 27°32' W 014°02'815.1
2018-Feb-15 21:58N 27°39' W 013°57'715.5
2018-Feb-15 21:30N 27°45' W 013°53'815.2
2018-Feb-15 21:00N 27°51' W 013°48'815.4
2018-Feb-15 20:30N 27°58' W 013°43'815.1
2018-Feb-15 20:00N 28°04' W 013°38'715.2
2018-Feb-15 19:30N 28°10' W 013°33'815.3
2018-Feb-15 19:00N 28°17' W 013°28'815.2
2018-Feb-15 18:30N 28°23' W 013°24'815.1
2018-Feb-15 18:00N 28°29' W 013°19'815.2
2018-Feb-15 17:30N 28°35' W 013°14'2615.2
2018-Feb-15 15:47N 28°57' W 012°58'415.6
2018-Feb-15 15:30N 29°01' W 012°55'715.2
2018-Feb-15 15:00N 29°07' W 012°50'714.8
2018-Feb-15 14:30N 29°13' W 012°46'815.1
2018-Feb-15 14:00N 29°20' W 012°41'815.3
2018-Feb-15 13:30N 29°26' W 012°36'3014.8
2018-Feb-15 11:28N 29°52' W 012°19'814.7
2018-Feb-15 10:57N 29°59' W 012°15'1714.9
2018-Feb-15 09:48N 30°16' W 012°09'414.8
2018-Feb-15 09:30N 30°20' W 012°08'714.9
2018-Feb-15 09:00N 30°27' W 012°06'714.8
2018-Feb-15 08:30N 30°34' W 012°05'714.7
2018-Feb-15 08:00N 30°42' W 012°03'714.8
2018-Feb-15 07:30N 30°49' W 012°01'714.8
2018-Feb-15 07:00N 30°56' W 011°59'714.6
2018-Feb-15 06:30N 31°03' W 011°57'814.8
2018-Feb-15 05:57N 31°11' W 011°55'914.7
2018-Feb-15 05:19N 31°20' W 011°53'35314.5
2018-Feb-14 04:54N 37°05' W 010°21'7014.4
2018-Feb-14 00:00N 38°14' W 010°05'715.1
2018-Feb-13 23:31N 38°21' W 010°04'714.7
2018-Feb-13 23:00N 38°29' W 010°03'714.6
2018-Feb-13 22:30N 38°36' W 010°05'714.5
2018-Feb-13 21:59N 38°43' W 010°06'714.5
2018-Feb-13 21:30N 38°50' W 010°06'714.3
2018-Feb-13 21:00N 38°58' W 010°06'714.3
2018-Feb-13 20:30N 39°05' W 010°07'714.1
2018-Feb-13 20:00N 39°12' W 010°07'814.2
2018-Feb-13 19:27N 39°20' W 010°07'  
2018-Feb-11 09:54N 49°48' W 003°28'1213.0
2018-Feb-11 08:57N 49°54' W 003°10'813.0
2018-Feb-11 08:18N 49°57' W 002°59'412.5
2018-Feb-11 08:00N 49°59' W 002°54'612.3
2018-Feb-11 07:30N 50°02' W 002°45'611.8
2018-Feb-11 07:00N 50°03' W 002°36'611.4
2018-Feb-11 06:29N 50°05' W 002°27'1210.5
2018-Feb-11 05:22N 50°07' W 002°10'4 9.8
2018-Feb-11 04:58N 50°08' W 002°04'4 9.5
2018-Feb-11 04:30N 50°09' W 001°57'5 9.4
2018-Feb-11 04:00N 50°10' W 001°50'5 9.4
2018-Feb-11 03:30N 50°11' W 001°43'5 9.8
2018-Feb-11 03:00N 50°13' W 001°35'510.0
2018-Feb-11 02:30N 50°14' W 001°28'510.6
2018-Feb-11 02:00N 50°15' W 001°20'611.2
2018-Feb-11 01:29N 50°17' W 001°11'3312.3
2018-Feb-10 22:49N 50°26' W 000°21'412.2
2018-Feb-10 22:30N 50°27' W 000°16'612.1
2018-Feb-10 22:00N 50°28' W 000°07'612.0
2018-Feb-10 21:30N 50°30' E 000°02'611.4
2018-Feb-10 20:58N 50°32' E 000°12'511.0
2018-Feb-10 20:30N 50°33' E 000°20'610.8
2018-Feb-10 19:58N 50°35' E 000°28'510.7
2018-Feb-10 19:30N 50°36' E 000°36'510.8
2018-Feb-10 19:00N 50°39' E 000°43'510.8
2018-Feb-10 18:30N 50°42' E 000°50'510.8
2018-Feb-10 18:00N 50°45' E 000°57'510.9
2018-Feb-10 17:30N 50°48' E 001°04'611.2
2018-Feb-10 16:59N 50°52' E 001°11'611.6
2018-Feb-10 16:29N 50°55' E 001°18'612.5
2018-Feb-10 16:00N 51°00' E 001°25'613.2
2018-Feb-10 15:30N 51°05' E 001°32'713.3
2018-Feb-10 15:00N 51°09' E 001°39'713.5
2018-Feb-10 14:30N 51°14' E 001°47'713.5
2018-Feb-10 14:00N 51°20' E 001°52'713.1
2018-Feb-10 13:30N 51°26' E 001°58'613.0
2018-Feb-10 13:00N 51°30' E 002°05'613.0
2018-Feb-10 12:30N 51°35' E 002°12'713.0
2018-Feb-10 12:00N 51°40' E 002°19'612.7
2018-Feb-10 11:30N 51°45' E 002°26'912.7
2018-Feb-10 10:47N 51°51' E 002°36'912.5
2018-Feb-10 10:06N 51°58' E 002°44'1812.0
2018-Feb-10 08:35N 52°03' E 003°13'213.1
2018-Feb-10 08:24N 52°03' E 003°17'713.4
2018-Feb-10 07:55N 52°04' E 003°27'613.8
2018-Feb-10 07:30N 52°04' E 003°36'713.5
2018-Feb-10 07:00N 52°04' E 003°47'5 9.8
2018-Feb-10 06:30N 52°02' E 003°55'4 8.4
2018-Feb-10 06:00N 52°00' E 004°01'713.7
2018-Feb-10 05:30N 51°57' E 004°10'611.8
2018-Feb-10 05:00N 51°54' E 004°18'1 1.7
2018-Feb-10 04:29N 51°53' E 004°17'0 0.0
2018-Feb-10 03:59N 51°53' E 004°17'0 0.0
2018-Feb-10 03:29N 51°53' E 004°17'0 0.0
2018-Feb-10 02:59N 51°53' E 004°17'0 0.0
2018-Feb-10 02:29N 51°53' E 004°17'0 0.0
2018-Feb-10 01:59N 51°53' E 004°17'0 0.0
2018-Feb-10 01:29N 51°53' E 004°17'0 0.0
2018-Feb-10 00:59N 51°53' E 004°17'0 0.0
2018-Feb-10 00:29N 51°53' E 004°17'0 0.0
2018-Feb-09 23:59N 51°53' E 004°17'0 0.0
2018-Feb-09 23:29N 51°53' E 004°17'0 0.0
2018-Feb-09 22:59N 51°53' E 004°17'0 0.0
2018-Feb-09 22:44N 51°53' E 004°17'1 0.0
2018-Feb-08 01:25N 51°53' E 004°16'0 0.0
2018-Feb-08 00:58N 51°53' E 004°16'0 0.0
2018-Feb-08 00:28N 51°53' E 004°16'0 0.0
2018-Feb-07 23:58N 51°53' E 004°16'0 0.0
2018-Feb-07 23:25N 51°53' E 004°16'0 0.0
2018-Feb-07 22:49N 51°53' E 004°16'0 0.0
2018-Feb-07 22:28N 51°53' E 004°16'0 0.0
2018-Feb-07 21:55N 51°53' E 004°16'0 0.0
2018-Feb-07 21:10N 51°53' E 004°16'3 0.3
2018-Feb-07 09:30N 51°56' E 004°14'5 9.7
2018-Feb-07 09:00N 51°58' E 004°07'510.4
2018-Feb-07 08:30N 51°60' E 003°59'713.2
2018-Feb-07 08:00N 51°59' E 003°48'4 8.3
2018-Feb-07 07:30N 51°59' E 003°41'4 8.7
2018-Feb-07 07:00N 51°57' E 003°35'9 9.8
2018-Feb-07 06:03N 51°53' E 003°22'011.1
2018-Feb-07 06:00N 51°52' E 003°22'712.1
2018-Feb-07 05:27N 51°46' E 003°17'610.8
2018-Feb-07 04:56N 51°41' E 003°19'512.0
2018-Feb-07 04:30N 51°36' E 003°23'510.9
2018-Feb-07 04:00N 51°31' E 003°26'510.7
2018-Feb-07 03:30N 51°27' E 003°31'4 8.4
2018-Feb-07 03:00N 51°26' E 003°38'5 9.7
2018-Feb-07 02:29N 51°23' E 003°43'611.7
2018-Feb-07 02:00N 51°21' E 003°52'611.6
2018-Feb-07 01:30N 51°25' E 003°58'5 9.6
2018-Feb-07 01:00N 51°22' E 004°04'9 9.0
2018-Feb-07 00:00N 51°18' E 004°17'2 4.8
2018-Feb-06 23:30N 51°16' E 004°17'0 0.1
2018-Feb-06 23:00N 51°16' E 004°17'0 0.5
2018-Feb-06 22:30N 51°16' E 004°16'2 3.9
2018-Feb-06 22:00N 51°17' E 004°14'0 0.0
2018-Feb-06 21:30N 51°17' E 004°14'0 0.0
2018-Feb-06 20:31N 51°17' E 004°14'0 0.0
2018-Feb-06 20:19N 51°17' E 004°14'0 0.0
2018-Feb-06 18:34N 51°17' E 004°14'0 0.0
2018-Feb-06 18:16N 51°17' E 004°14'0 0.0
2018-Feb-06 17:58N 51°17' E 004°14'0 0.0
2018-Feb-06 17:25N 51°17' E 004°14'0 0.0
2018-Feb-06 14:07N 51°17' E 004°14'0 0.0
2018-Feb-06 13:10N 51°17' E 004°14'0 0.0
2018-Feb-06 05:22N 51°17' E 004°14'0 0.0
2018-Feb-06 03:37N 51°17' E 004°14'0 0.0
2018-Feb-06 03:16N 51°17' E 004°14'0 0.0
2018-Feb-06 01:40N 51°17' E 004°14'  

Dump ship's entire track history